createdAt,value
2023-12-27T00:00:50.733Z,1.90
2023-12-27T00:03:17.501Z,3.13
2023-12-27T00:05:44.097Z,2.90
2023-12-27T00:08:10.861Z,1.98
2023-12-27T00:10:37.376Z,2.88
2023-12-27T00:13:04.078Z,2.67
2023-12-27T00:15:30.712Z,3.10
2023-12-27T00:17:57.617Z,3.20
2023-12-27T00:20:24.361Z,1.73
2023-12-27T00:22:50.823Z,1.83
2023-12-27T00:25:17.298Z,2.33
2023-12-27T00:27:43.835Z,2.65
2023-12-27T00:30:10.915Z,3.00
2023-12-27T00:32:37.532Z,2.30
2023-12-27T00:35:04.261Z,2.85
2023-12-27T00:37:31.979Z,3.45
2023-12-27T00:39:58.496Z,3.70
2023-12-27T00:42:25.092Z,1.20
2023-12-27T00:44:52.663Z,2.67
2023-12-27T00:47:19.777Z,3.63
2023-12-27T00:49:46.378Z,2.90
2023-12-27T00:52:13.458Z,1.42
2023-12-27T00:54:40.092Z,2.53
2023-12-27T00:57:07.064Z,2.38
2023-12-27T00:59:33.765Z,1.98
2023-12-27T01:02:00.235Z,3.25
2023-12-27T01:04:26.891Z,1.73
2023-12-27T01:06:53.477Z,1.83
2023-12-27T01:09:20.074Z,1.90
2023-12-27T01:11:46.846Z,1.67
2023-12-27T01:14:13.696Z,3.25
2023-12-27T01:16:40.241Z,3.47
2023-12-27T01:19:06.843Z,2.25
2023-12-27T01:21:33.639Z,1.92
2023-12-27T01:24:00.372Z,2.55
2023-12-27T01:26:27.026Z,2.13
2023-12-27T01:28:53.532Z,2.53
2023-12-27T01:31:20.112Z,4.15
2023-12-27T01:33:46.889Z,1.95
2023-12-27T01:36:13.772Z,2.83
2023-12-27T01:38:40.308Z,3.10
2023-12-27T01:41:06.805Z,2.13
2023-12-27T01:43:33.400Z,1.90
2023-12-27T01:45:59.904Z,2.22
2023-12-27T01:48:26.713Z,1.92
2023-12-27T01:50:55.051Z,1.80
2023-12-27T01:53:23.525Z,2.60
2023-12-27T01:55:51.923Z,3.60
2023-12-27T01:58:18.773Z,1.98
2023-12-27T02:00:46.877Z,2.00
2023-12-27T02:03:15.956Z,1.80
2023-12-27T02:05:42.792Z,1.88
2023-12-27T02:08:11.234Z,3.97
2023-12-27T02:10:38.536Z,3.00
2023-12-27T02:13:06.083Z,1.35
2023-12-27T02:15:39.288Z,2.38
2023-12-27T02:18:07.775Z,2.10
2023-12-27T02:20:35.050Z,3.03
2023-12-27T02:23:06.354Z,2.80
2023-12-27T02:25:36.589Z,2.03
2023-12-27T02:28:03.265Z,1.77
2023-12-27T02:30:32.441Z,2.33
2023-12-27T02:32:59.180Z,2.25
2023-12-27T02:35:25.841Z,1.85
2023-12-27T02:37:52.444Z,2.58
2023-12-27T02:40:19.020Z,1.75
2023-12-27T02:42:45.671Z,2.75
2023-12-27T02:45:12.308Z,1.95
2023-12-27T02:47:38.915Z,1.80
2023-12-27T02:50:06.115Z,1.67
2023-12-27T02:52:32.690Z,2.53
2023-12-27T02:54:59.257Z,2.28
2023-12-27T02:57:25.871Z,2.47
2023-12-27T02:59:52.464Z,2.70
2023-12-27T03:02:19.025Z,1.65
2023-12-27T03:04:45.582Z,1.95
2023-12-27T03:07:12.798Z,1.70
2023-12-27T03:09:39.331Z,1.70
2023-12-27T03:12:06.501Z,3.13
2023-12-27T03:14:33.324Z,2.60
2023-12-27T03:17:00.991Z,2.80
2023-12-27T03:19:27.615Z,2.60
2023-12-27T03:21:54.240Z,1.42
2023-12-27T03:24:20.819Z,2.42
2023-12-27T03:26:47.338Z,3.50
2023-12-27T03:29:13.891Z,2.28
2023-12-27T03:31:40.429Z,2.55
2023-12-27T03:34:07.087Z,2.75
2023-12-27T03:36:33.796Z,2.65
2023-12-27T03:39:00.359Z,2.85
2023-12-27T03:41:27.036Z,2.40
2023-12-27T03:43:59.468Z,2.75
2023-12-27T03:46:26.551Z,2.28
2023-12-27T03:48:53.198Z,1.95
2023-12-27T03:51:25.970Z,2.75
2023-12-27T03:53:52.592Z,2.30
2023-12-27T03:56:19.137Z,1.92
2023-12-27T03:58:45.656Z,1.77
2023-12-27T04:01:12.482Z,2.33
2023-12-27T04:03:40.939Z,2.08
2023-12-27T04:06:07.872Z,2.80
2023-12-27T04:08:37.038Z,2.28
2023-12-27T04:11:03.889Z,3.10
2023-12-27T04:13:30.478Z,1.90
2023-12-27T04:15:56.972Z,2.30
2023-12-27T04:18:23.590Z,1.65
2023-12-27T04:20:50.181Z,2.92
2023-12-27T04:23:16.689Z,1.23
2023-12-27T04:25:43.356Z,2.60
2023-12-27T04:28:10.025Z,2.95
2023-12-27T04:30:36.578Z,2.10
2023-12-27T04:33:03.512Z,2.40
2023-12-27T04:35:30.164Z,1.73
2023-12-27T04:37:56.945Z,1.67
2023-12-27T04:40:23.927Z,2.78
2023-12-27T04:42:50.430Z,2.40
2023-12-27T04:45:18.172Z,4.38
2023-12-27T04:47:44.846Z,1.77
2023-12-27T04:50:11.688Z,3.67
2023-12-27T04:52:38.235Z,1.70
2023-12-27T04:55:05.388Z,2.38
2023-12-27T04:57:34.205Z,2.67
2023-12-27T05:00:00.863Z,1.40
2023-12-27T05:02:27.505Z,1.25
2023-12-27T05:04:54.004Z,2.67
2023-12-27T05:07:20.512Z,2.40
2023-12-27T05:09:47.053Z,2.00
2023-12-27T05:12:13.607Z,2.95
2023-12-27T05:14:40.114Z,3.40
2023-12-27T05:17:06.674Z,2.72
2023-12-27T05:19:33.749Z,2.55
2023-12-27T05:22:00.337Z,1.85
2023-12-27T05:24:27.096Z,1.38
2023-12-27T05:26:55.712Z,2.40
2023-12-27T05:29:22.408Z,1.83
2023-12-27T05:31:49.024Z,1.90
2023-12-27T05:34:15.597Z,2.05
2023-12-27T05:36:42.176Z,2.13
2023-12-27T05:39:08.692Z,4.05
2023-12-27T05:41:35.235Z,3.42
2023-12-27T05:44:02.620Z,1.90
2023-12-27T05:46:29.595Z,3.95
2023-12-27T05:48:56.140Z,2.33
2023-12-27T05:51:22.733Z,4.45
2023-12-27T05:53:49.244Z,1.80
2023-12-27T05:56:15.776Z,3.58
2023-12-27T05:58:42.282Z,1.85
2023-12-27T06:01:10.467Z,3.22
2023-12-27T06:03:37.547Z,4.10
2023-12-27T06:06:04.365Z,2.55
2023-12-27T06:08:30.973Z,3.22
2023-12-27T06:10:57.446Z,3.28
2023-12-27T06:13:23.937Z,2.60
2023-12-27T06:15:50.444Z,4.43
2023-12-27T06:18:17.347Z,3.33
2023-12-27T06:20:43.973Z,2.42
2023-12-27T06:23:10.504Z,2.25
2023-12-27T06:25:37.061Z,2.45
2023-12-27T06:28:05.320Z,4.35
2023-12-27T06:30:31.980Z,3.80
2023-12-27T06:32:58.770Z,2.92
2023-12-27T06:35:25.353Z,2.90
2023-12-27T06:37:51.807Z,3.45
2023-12-27T06:40:18.294Z,2.95
2023-12-27T06:42:44.855Z,3.42
2023-12-27T06:45:11.916Z,3.50
2023-12-27T06:47:38.448Z,4.88
2023-12-27T06:50:05.605Z,4.90
2023-12-27T06:52:32.176Z,4.20
2023-12-27T06:54:58.748Z,4.97
2023-12-27T06:57:25.279Z,4.15
2023-12-27T06:59:52.086Z,5.22
2023-12-27T07:02:18.641Z,4.63
2023-12-27T07:04:45.680Z,7.28
2023-12-27T07:07:12.339Z,8.07
2023-12-27T07:09:38.994Z,7.20
2023-12-27T07:12:06.165Z,4.15
2023-12-27T07:14:32.772Z,5.05
2023-12-27T07:16:59.341Z,4.82
2023-12-27T07:19:25.844Z,4.25
2023-12-27T07:21:52.419Z,3.70
2023-12-27T07:24:18.993Z,4.45
2023-12-27T07:26:45.632Z,5.28
2023-12-27T07:29:12.302Z,5.20
2023-12-27T07:31:39.005Z,4.38
2023-12-27T07:34:05.693Z,3.70
2023-12-27T07:36:32.373Z,4.50
2023-12-27T07:38:59.027Z,6.57
2023-12-27T07:41:25.578Z,3.40
2023-12-27T07:43:52.062Z,6.07
2023-12-27T07:46:18.560Z,5.88
2023-12-27T07:48:45.364Z,6.63
2023-12-27T07:51:11.970Z,4.85
2023-12-27T07:53:39.238Z,7.25
2023-12-27T07:56:10.582Z,11.05
2023-12-27T07:58:37.089Z,8.75
2023-12-27T08:01:03.774Z,7.00
2023-12-27T08:03:30.682Z,5.68
2023-12-27T08:05:57.264Z,5.93
2023-12-27T08:08:24.087Z,4.25
2023-12-27T08:10:50.612Z,4.40
2023-12-27T08:13:17.138Z,4.00
2023-12-27T08:15:43.739Z,7.07
2023-12-27T08:18:10.375Z,7.50
2023-12-27T08:20:37.570Z,5.80
2023-12-27T08:23:04.325Z,5.32
2023-12-27T08:25:31.027Z,3.55
2023-12-27T08:27:57.738Z,3.03
2023-12-27T08:30:24.604Z,3.15
2023-12-27T08:32:51.252Z,3.17
2023-12-27T08:35:20.018Z,2.70
2023-12-27T08:37:46.931Z,3.38
2023-12-27T08:40:13.655Z,3.97
2023-12-27T08:42:40.235Z,3.88
2023-12-27T08:45:07.295Z,3.75
2023-12-27T08:47:33.896Z,4.75
2023-12-27T08:50:04.709Z,3.13
2023-12-27T08:52:32.630Z,2.90
2023-12-27T08:54:59.514Z,2.67
2023-12-27T08:57:26.345Z,3.60
2023-12-27T08:59:52.858Z,4.20
2023-12-27T09:02:19.405Z,3.75
2023-12-27T09:04:45.998Z,2.40
2023-12-27T09:07:12.655Z,3.80
2023-12-27T09:09:40.624Z,5.05
2023-12-27T09:12:07.375Z,4.15
2023-12-27T09:14:33.998Z,2.42
2023-12-27T09:17:00.599Z,3.00
2023-12-27T09:19:27.233Z,2.60
2023-12-27T09:21:53.785Z,3.30
2023-12-27T09:24:21.192Z,3.20
2023-12-27T09:26:50.914Z,3.85
2023-12-27T09:29:17.525Z,4.05
2023-12-27T09:31:44.906Z,3.60
2023-12-27T09:34:11.891Z,3.28
2023-12-27T09:36:38.751Z,4.90
2023-12-27T09:39:06.127Z,3.38
2023-12-27T09:41:33.150Z,2.97
2023-12-27T09:44:00.818Z,3.83
2023-12-27T09:46:29.394Z,2.88
2023-12-27T09:48:56.573Z,2.25
2023-12-27T09:51:25.269Z,2.33
2023-12-27T09:53:52.699Z,2.58
2023-12-27T09:56:27.034Z,1.73
2023-12-27T09:58:59.057Z,3.17
2023-12-27T10:01:26.386Z,2.70
2023-12-27T10:04:04.617Z,3.63
2023-12-27T10:06:49.186Z,4.05
2023-12-27T10:09:17.798Z,1.95
2023-12-27T10:11:45.714Z,5.40
2023-12-27T10:14:14.538Z,2.85
2023-12-27T10:16:41.021Z,4.10
2023-12-27T10:19:09.186Z,3.03
2023-12-27T10:21:46.217Z,3.28
2023-12-27T10:24:13.170Z,4.95
2023-12-27T10:26:39.821Z,3.33
2023-12-27T10:29:08.721Z,3.03
2023-12-27T10:31:35.748Z,1.92
2023-12-27T10:34:05.009Z,2.08
2023-12-27T10:36:32.223Z,3.25
2023-12-27T10:39:03.782Z,3.67
2023-12-27T10:41:33.568Z,2.30
2023-12-27T10:44:01.702Z,2.72
2023-12-27T10:46:28.234Z,4.50
2023-12-27T10:49:01.345Z,3.80
2023-12-27T10:51:31.105Z,2.80
2023-12-27T10:54:04.516Z,2.97
2023-12-27T10:56:36.967Z,4.32
2023-12-27T10:59:05.940Z,4.10
2023-12-27T11:01:34.847Z,2.30
2023-12-27T11:04:12.547Z,3.50
2023-12-27T11:06:40.836Z,4.75
2023-12-27T11:09:10.307Z,2.28
2023-12-27T11:11:40.460Z,3.03
2023-12-27T11:14:15.029Z,3.65
2023-12-27T11:16:42.181Z,2.90
2023-12-27T11:19:09.812Z,4.55
2023-12-27T11:21:37.647Z,3.45
2023-12-27T11:24:05.415Z,3.53
2023-12-27T11:26:37.640Z,6.13
2023-12-27T11:29:12.036Z,3.97
2023-12-27T11:31:42.964Z,2.45
2023-12-27T11:34:12.540Z,2.80
2023-12-27T11:36:39.638Z,1.88
2023-12-27T11:39:25.300Z,4.65
2023-12-27T11:41:51.862Z,3.30
2023-12-27T11:44:18.511Z,3.38
2023-12-27T11:46:45.427Z,3.47
2023-12-27T11:49:22.516Z,4.03
2023-12-27T11:51:49.328Z,4.68
2023-12-27T11:54:25.346Z,3.75
2023-12-27T11:56:53.530Z,3.35
2023-12-27T11:59:23.065Z,3.58
2023-12-27T12:01:50.780Z,1.90
2023-12-27T12:04:55.818Z,3.17
2023-12-27T12:07:36.842Z,3.90
2023-12-27T12:10:04.302Z,2.63
2023-12-27T12:12:31.762Z,2.90
2023-12-27T12:14:59.623Z,2.70
2023-12-27T12:17:28.376Z,3.17
2023-12-27T12:19:56.619Z,2.78
2023-12-27T12:22:23.327Z,2.97
2023-12-27T12:24:49.915Z,2.08
2023-12-27T12:27:21.936Z,4.43
2023-12-27T12:32:16.569Z,1.90
2023-12-27T12:34:43.939Z,3.38
2023-12-27T12:37:11.220Z,5.78
2023-12-27T12:39:37.967Z,4.70
2023-12-27T12:42:04.726Z,8.52
2023-12-27T12:44:33.156Z,3.50
2023-12-27T12:47:01.073Z,3.08
2023-12-27T12:49:28.981Z,3.28
2023-12-27T12:52:05.458Z,2.28
2023-12-27T12:54:33.534Z,3.55
2023-12-27T12:57:04.145Z,3.05
2023-12-27T12:59:31.292Z,1.88
2023-12-27T13:01:58.026Z,4.03
2023-12-27T13:04:25.410Z,2.22
2023-12-27T13:07:02.622Z,3.95
2023-12-27T13:09:29.374Z,3.42
2023-12-27T13:11:56.058Z,2.45
2023-12-27T13:14:22.691Z,2.70
2023-12-27T13:16:49.725Z,3.70
2023-12-27T13:19:18.420Z,3.35
2023-12-27T13:21:45.284Z,4.35
2023-12-27T13:24:11.928Z,2.63
2023-12-27T13:26:38.848Z,3.40
2023-12-27T13:29:05.420Z,2.83
2023-12-27T13:31:33.415Z,4.68
2023-12-27T13:34:00.411Z,4.47
2023-12-27T13:36:27.628Z,2.63
2023-12-27T13:38:54.133Z,4.43
2023-12-27T13:41:20.651Z,4.28
2023-12-27T13:43:47.154Z,4.00
2023-12-27T13:46:13.984Z,3.53
2023-12-27T13:48:41.214Z,6.53
2023-12-27T13:51:07.914Z,2.92
2023-12-27T13:53:35.534Z,2.42
2023-12-27T13:56:02.762Z,3.92
2023-12-27T13:58:30.237Z,2.90
2023-12-27T14:00:57.290Z,3.78
2023-12-27T14:03:23.963Z,4.57
2023-12-27T14:05:50.615Z,3.45
2023-12-27T14:08:17.126Z,2.88
2023-12-27T14:10:43.664Z,2.13
2023-12-27T14:13:10.553Z,3.47
2023-12-27T14:15:37.341Z,5.45
2023-12-27T14:18:05.826Z,3.60
2023-12-27T14:20:32.858Z,2.90
2023-12-27T14:22:59.397Z,3.05
2023-12-27T14:25:25.906Z,4.15
2023-12-27T14:27:53.720Z,4.00
2023-12-27T14:30:20.356Z,3.10
2023-12-27T14:32:46.915Z,6.80
2023-12-27T14:35:13.485Z,2.90
2023-12-27T14:37:41.544Z,4.60
2023-12-27T14:40:09.399Z,2.60
2023-12-27T14:42:36.191Z,4.38
2023-12-27T14:45:03.817Z,3.95
2023-12-27T14:47:30.830Z,3.63
2023-12-27T14:49:57.370Z,3.45
2023-12-27T14:52:23.884Z,3.65
2023-12-27T14:54:50.412Z,2.97
2023-12-27T14:57:21.583Z,6.38
2023-12-27T14:59:48.116Z,3.03
2023-12-27T15:02:14.711Z,2.72
2023-12-27T15:04:41.420Z,3.85
2023-12-27T15:07:08.011Z,4.28
2023-12-27T15:09:34.789Z,6.50
2023-12-27T15:12:01.357Z,12.32
2023-12-27T15:14:27.971Z,12.25
2023-12-27T15:16:55.480Z,6.28
2023-12-27T15:19:22.068Z,7.93
2023-12-27T15:21:48.719Z,9.63
2023-12-27T15:24:15.440Z,8.02
2023-12-27T15:26:42.131Z,8.23
2023-12-27T15:29:09.051Z,7.10
2023-12-27T15:31:35.899Z,10.05
2023-12-27T15:34:03.382Z,9.75
2023-12-27T15:36:30.515Z,8.68
2023-12-27T15:38:57.390Z,7.78
2023-12-27T15:41:29.669Z,11.25
2023-12-27T15:44:00.778Z,10.10
2023-12-27T15:46:30.683Z,8.40
2023-12-27T15:48:58.540Z,11.32
2023-12-27T15:51:35.749Z,12.82
2023-12-27T15:54:07.928Z,12.77
2023-12-27T15:56:39.280Z,13.57
2023-12-27T15:59:06.463Z,11.55
2023-12-27T16:01:37.127Z,12.48
2023-12-27T16:04:07.754Z,12.32
2023-12-27T16:06:36.899Z,10.18
2023-12-27T16:09:05.568Z,11.25
2023-12-27T16:11:32.409Z,11.75
2023-12-27T16:14:00.052Z,6.95
2023-12-27T16:16:27.100Z,7.97
2023-12-27T16:18:53.964Z,6.90
2023-12-27T16:21:21.343Z,7.20
2023-12-27T16:23:48.187Z,7.60
2023-12-27T16:26:17.098Z,10.32
2023-12-27T16:28:48.250Z,9.73
2023-12-27T16:31:15.187Z,7.85
2023-12-27T16:33:42.090Z,7.60
2023-12-27T16:36:09.117Z,6.32
2023-12-27T16:38:35.705Z,6.10
2023-12-27T16:41:04.529Z,7.60
2023-12-27T16:43:37.913Z,9.40
2023-12-27T16:46:06.886Z,8.32
2023-12-27T16:48:34.238Z,9.52
2023-12-27T16:51:01.741Z,13.15
2023-12-27T16:53:28.449Z,11.25
2023-12-27T16:55:55.056Z,8.57
2023-12-27T16:58:21.770Z,7.03
2023-12-27T17:00:49.524Z,6.43
2023-12-27T17:03:16.809Z,11.20
2023-12-27T17:05:44.076Z,7.78
2023-12-27T17:08:11.226Z,7.25
2023-12-27T17:10:39.575Z,9.73
2023-12-27T17:13:06.199Z,13.13
2023-12-27T17:15:33.293Z,7.93
2023-12-27T17:18:01.278Z,9.90
2023-12-27T17:20:28.440Z,8.93
2023-12-27T17:22:55.104Z,9.80
2023-12-27T17:25:22.488Z,11.85
2023-12-27T17:27:49.098Z,11.40
2023-12-27T17:30:16.063Z,12.05
2023-12-27T17:32:45.198Z,13.38
2023-12-27T17:35:11.965Z,11.93
2023-12-27T17:37:40.089Z,8.00
2023-12-27T17:40:09.358Z,7.80
2023-12-27T17:42:39.344Z,7.22
2023-12-27T17:45:06.705Z,7.82
2023-12-27T17:47:33.765Z,6.60
2023-12-27T17:50:01.790Z,6.55
2023-12-27T17:52:29.889Z,7.13
2023-12-27T17:54:56.987Z,7.35
2023-12-27T17:57:24.053Z,8.45
2023-12-27T17:59:53.718Z,7.68
2023-12-27T18:02:20.365Z,11.10
2023-12-27T18:04:48.736Z,8.77
2023-12-27T18:07:15.966Z,9.55
2023-12-27T18:09:45.600Z,10.32
2023-12-27T18:12:14.798Z,7.80
2023-12-27T18:14:41.572Z,8.93
2023-12-27T18:17:11.782Z,7.40
2023-12-27T18:19:41.235Z,8.93
2023-12-27T18:22:08.441Z,9.43
2023-12-27T18:24:39.033Z,10.35
2023-12-27T18:27:06.334Z,8.23
2023-12-27T18:29:37.475Z,9.80
2023-12-27T18:32:05.779Z,10.27
2023-12-27T18:34:36.626Z,9.40
2023-12-27T18:37:03.287Z,9.43
2023-12-27T18:39:29.930Z,8.10
2023-12-27T18:41:56.542Z,7.70
2023-12-27T18:44:24.113Z,7.90
2023-12-27T18:46:50.649Z,8.20
2023-12-27T18:49:17.448Z,7.65
2023-12-27T18:51:44.159Z,8.43
2023-12-27T18:54:10.829Z,7.22
2023-12-27T18:56:37.363Z,8.63
2023-12-27T18:59:05.180Z,8.30
2023-12-27T19:01:32.309Z,11.23
2023-12-27T19:03:59.230Z,7.97
2023-12-27T19:06:27.583Z,7.55
2023-12-27T19:09:00.822Z,8.43
2023-12-27T19:11:29.425Z,9.15
2023-12-27T19:13:58.311Z,7.75
2023-12-27T19:16:27.928Z,6.97
2023-12-27T19:18:55.535Z,12.63
2023-12-27T19:21:23.125Z,10.30
2023-12-27T19:23:49.894Z,9.10
2023-12-27T19:26:18.550Z,9.68
2023-12-27T19:28:47.640Z,11.43
2023-12-27T19:31:14.995Z,9.88
2023-12-27T19:33:41.894Z,10.73
2023-12-27T19:36:09.361Z,12.40
2023-12-27T19:38:36.463Z,10.10
2023-12-27T19:41:05.944Z,12.27
2023-12-27T19:43:33.249Z,10.02
2023-12-27T19:45:59.911Z,10.32
2023-12-27T19:48:27.048Z,10.38
2023-12-27T19:50:53.841Z,10.20
2023-12-27T19:53:20.322Z,9.35
2023-12-27T19:55:48.374Z,10.65
2023-12-27T19:58:15.924Z,10.10
2023-12-27T20:00:42.569Z,7.70
2023-12-27T20:03:09.340Z,8.88
2023-12-27T20:05:36.017Z,8.35
2023-12-27T20:08:03.129Z,8.02
2023-12-27T20:10:31.663Z,8.82
2023-12-27T20:13:02.302Z,7.50
2023-12-27T20:15:29.708Z,9.00
2023-12-27T20:17:56.773Z,8.05
2023-12-27T20:20:23.691Z,12.65
2023-12-27T20:22:51.463Z,9.48
2023-12-27T20:25:18.039Z,7.35
2023-12-27T20:27:45.032Z,8.63
2023-12-27T20:30:12.300Z,10.45
2023-12-27T20:32:38.874Z,8.23
2023-12-27T20:35:06.052Z,12.38
2023-12-27T20:37:32.952Z,11.55
2023-12-27T20:40:02.392Z,11.38
2023-12-27T20:42:31.309Z,11.32
2023-12-27T20:44:58.053Z,9.63
2023-12-27T20:47:24.678Z,9.88
2023-12-27T20:49:51.348Z,9.75
2023-12-27T20:52:17.978Z,8.63
2023-12-27T20:54:44.468Z,9.80
2023-12-27T20:57:11.221Z,11.20
2023-12-27T20:59:39.102Z,9.93
2023-12-27T21:02:05.623Z,10.68
2023-12-27T21:04:32.532Z,11.23
2023-12-27T21:07:02.535Z,9.55
2023-12-27T21:09:29.092Z,10.23
2023-12-27T21:11:56.271Z,8.70
2023-12-27T21:14:22.864Z,10.68
2023-12-27T21:16:49.458Z,11.50
2023-12-27T21:19:16.189Z,9.90
2023-12-27T21:21:44.142Z,12.55
2023-12-27T21:24:11.762Z,11.82
2023-12-27T21:26:38.374Z,10.25
2023-12-27T21:29:05.139Z,15.10
2023-12-27T21:31:33.819Z,14.20
2023-12-27T21:34:00.721Z,12.27
2023-12-27T21:36:30.035Z,13.63
2023-12-27T21:38:57.874Z,15.02
2023-12-27T21:41:28.505Z,14.75
2023-12-27T21:43:57.568Z,13.48
2023-12-27T21:46:30.257Z,13.98
2023-12-27T21:48:57.462Z,23.75
2023-12-27T21:51:28.496Z,17.08
2023-12-27T21:53:56.111Z,21.63
2023-12-27T21:56:23.820Z,21.70
2023-12-27T21:58:53.862Z,22.52
2023-12-27T22:01:21.926Z,25.83
2023-12-27T22:03:50.123Z,22.45
2023-12-27T22:06:17.230Z,22.75
2023-12-27T22:08:44.404Z,20.95
2023-12-27T22:11:12.723Z,26.48
2023-12-27T22:13:42.726Z,18.58
2023-12-27T22:16:16.859Z,18.52
2023-12-27T22:18:46.012Z,21.10
2023-12-27T22:21:18.030Z,21.83
2023-12-27T22:23:45.667Z,17.98
2023-12-27T22:26:14.078Z,16.38
2023-12-27T22:28:40.735Z,16.38
2023-12-27T22:31:07.729Z,14.15
2023-12-27T22:33:34.634Z,16.42
2023-12-27T22:36:01.330Z,17.50
2023-12-27T22:38:28.111Z,12.88
2023-12-27T22:40:54.879Z,16.05
2023-12-27T22:43:21.419Z,14.07
2023-12-27T22:45:48.066Z,15.25
2023-12-27T22:48:14.794Z,14.10
2023-12-27T22:50:41.332Z,13.73
2023-12-27T22:53:08.024Z,15.65
2023-12-27T22:55:34.611Z,15.85
2023-12-27T22:58:01.745Z,15.90
2023-12-27T23:00:28.485Z,14.50
2023-12-27T23:02:55.077Z,18.77
2023-12-27T23:05:23.483Z,13.43
2023-12-27T23:07:50.435Z,15.07
2023-12-27T23:10:16.929Z,13.05
2023-12-27T23:12:44.057Z,14.45
2023-12-27T23:15:11.317Z,14.27
2023-12-27T23:17:39.606Z,13.13
2023-12-27T23:20:07.086Z,15.23
2023-12-27T23:22:33.928Z,15.80
2023-12-27T23:25:00.817Z,16.17
2023-12-27T23:27:28.124Z,16.45
2023-12-27T23:29:54.832Z,15.70
2023-12-27T23:32:21.594Z,14.27
2023-12-27T23:34:48.406Z,17.33
2023-12-27T23:37:15.014Z,13.13
2023-12-27T23:39:43.053Z,15.50
2023-12-27T23:42:10.573Z,20.38
2023-12-27T23:44:37.215Z,15.40
2023-12-27T23:47:03.810Z,16.63
2023-12-27T23:49:30.883Z,18.13
2023-12-27T23:51:59.056Z,20.55
2023-12-27T23:54:25.857Z,20.27
2023-12-27T23:56:54.188Z,19.00
2023-12-27T23:59:20.750Z,20.45
